createdAt,value
2023-03-06T00:03:33.727Z,10.50
2023-03-06T00:07:36.768Z,11.00
2023-03-06T00:11:39.766Z,9.00
2023-03-06T00:15:42.778Z,10.00
2023-03-06T00:19:45.769Z,8.00
2023-03-06T00:23:48.716Z,10.50
2023-03-06T00:27:52.136Z,11.10
2023-03-06T00:31:55.678Z,10.40
2023-03-06T00:35:59.511Z,9.10
2023-03-06T00:40:04.328Z,12.80
2023-03-06T00:44:07.401Z,8.40
2023-03-06T00:48:10.952Z,9.70
2023-03-06T00:52:19.093Z,14.10
2023-03-06T00:56:22.461Z,9.10
2023-03-06T01:00:25.689Z,9.20
2023-03-06T01:04:28.650Z,14.20
2023-03-06T01:08:31.793Z,11.70
2023-03-06T01:12:35.193Z,9.20
2023-03-06T01:16:38.388Z,9.70
2023-03-06T01:20:41.520Z,8.30
2023-03-06T01:24:44.671Z,9.00
2023-03-06T01:28:47.590Z,10.30
2023-03-06T01:32:51.150Z,10.10
2023-03-06T01:36:54.646Z,13.00
2023-03-06T01:40:58.303Z,15.00
2023-03-06T01:45:14.234Z,12.70
2023-03-06T01:49:22.230Z,10.10
2023-03-06T01:58:12.888Z,14.10
2023-03-06T02:02:17.274Z,16.70
2023-03-06T02:06:25.033Z,10.50
2023-03-06T02:10:28.980Z,11.10
2023-03-06T02:15:21.913Z,18.30
2023-03-06T02:19:54.110Z,13.60
2023-03-06T02:24:12.539Z,10.70
2023-03-06T02:28:18.600Z,13.70
2023-03-06T02:32:21.477Z,15.80
2023-03-06T02:36:24.226Z,11.60
2023-03-06T02:40:27.105Z,11.10
2023-03-06T02:44:35.834Z,12.40
2023-03-06T02:48:38.603Z,9.40
2023-03-06T02:52:41.353Z,9.10
2023-03-06T02:57:11.474Z,11.90
2023-03-06T03:01:14.490Z,10.90
2023-03-06T03:06:18.361Z,11.30
2023-03-06T03:10:21.178Z,12.40
2023-03-06T03:14:24.758Z,19.00
2023-03-06T03:18:27.679Z,11.60
2023-03-06T03:22:30.661Z,9.90
2023-03-06T03:27:01.974Z,14.00
2023-03-06T03:31:06.760Z,13.10
2023-03-06T03:36:00.119Z,11.90
2023-03-06T03:40:04.227Z,14.00
2023-03-06T03:49:46.160Z,13.10
2023-03-06T03:53:49.379Z,12.00
2023-03-06T03:57:52.178Z,10.40
2023-03-06T04:01:56.135Z,12.30
2023-03-06T04:06:19.924Z,13.00
2023-03-06T04:10:22.705Z,17.90
2023-03-06T04:14:45.119Z,11.40
2023-03-06T04:18:47.878Z,14.60
2023-03-06T04:23:03.220Z,10.90
2023-03-06T04:27:06.073Z,11.90
2023-03-06T04:31:15.350Z,12.30
2023-03-06T04:35:18.356Z,10.40
2023-03-06T04:58:33.594Z,9.40
2023-03-06T05:09:14.517Z,12.90
2023-03-06T05:13:17.296Z,9.00
2023-03-06T05:17:24.013Z,7.90
2023-03-06T05:21:26.828Z,10.00
2023-03-06T05:25:29.681Z,9.70
2023-03-06T05:29:36.970Z,10.50
2023-03-06T05:33:39.646Z,10.00
2023-03-06T05:37:42.503Z,12.50
2023-03-06T05:41:56.771Z,6.00
2023-03-06T05:46:05.528Z,9.70
2023-03-06T05:50:10.625Z,9.10
2023-03-06T06:08:55.879Z,8.10
2023-03-06T06:13:58.182Z,8.70
2023-03-06T06:23:31.045Z,10.40
2023-03-06T06:27:35.406Z,7.30
2023-03-06T06:31:40.902Z,11.00
2023-03-06T06:35:48.108Z,9.30
2023-03-06T06:39:51.050Z,8.60
2023-03-06T06:43:53.974Z,7.10
2023-03-06T06:48:05.174Z,9.30
2023-03-06T06:52:08.114Z,10.70
2023-03-06T07:01:36.029Z,9.60
2023-03-06T07:29:58.934Z,9.70
2023-03-06T07:34:04.519Z,12.10
2023-03-06T07:38:07.863Z,12.30
2023-03-06T07:42:14.140Z,12.70
2023-03-06T07:46:19.523Z,12.60
2023-03-06T07:50:22.299Z,14.60
2023-03-06T07:54:26.867Z,13.50
2023-03-06T07:58:57.158Z,13.50
2023-03-06T08:03:00.077Z,10.90
2023-03-06T08:07:03.602Z,11.70
2023-03-06T08:11:07.865Z,10.60
2023-03-06T08:15:12.000Z,8.20
2023-03-06T08:19:15.750Z,11.50
2023-03-06T08:46:11.251Z,13.00
2023-03-06T08:55:03.859Z,17.00
2023-03-06T08:59:09.628Z,21.30
2023-03-06T09:03:12.689Z,15.40
2023-03-06T09:07:16.231Z,16.00
2023-03-06T09:11:20.640Z,17.20
2023-03-06T09:15:51.230Z,16.90
2023-03-06T09:19:53.920Z,16.90
2023-03-06T09:23:56.860Z,18.70
2023-03-06T09:28:11.005Z,15.90
2023-03-06T09:32:40.638Z,14.60
2023-03-06T09:36:56.058Z,15.50
2023-03-06T09:41:41.535Z,11.70
2023-03-06T09:45:45.270Z,14.00
2023-03-06T10:01:01.272Z,12.80
2023-03-06T10:05:07.273Z,10.90
2023-03-06T10:09:32.092Z,12.70
2023-03-06T10:14:12.560Z,14.70
2023-03-06T10:18:33.608Z,15.80
2023-03-06T10:28:41.461Z,26.10
2023-03-06T10:32:56.126Z,11.70
2023-03-06T10:37:19.161Z,10.30
2023-03-06T10:41:24.888Z,9.90
2023-03-06T10:45:27.977Z,11.50
2023-03-06T10:49:37.120Z,16.10
2023-03-06T10:54:14.431Z,15.70
2023-03-06T11:02:32.020Z,13.30
2023-03-06T11:06:35.661Z,13.90
2023-03-06T11:10:39.541Z,16.00
2023-03-06T11:15:23.432Z,11.20
2023-03-06T11:19:29.211Z,12.20
2023-03-06T11:23:54.444Z,12.00
2023-03-06T11:28:25.003Z,12.70
2023-03-06T11:32:57.771Z,10.50
2023-03-06T11:37:26.001Z,9.80
2023-03-06T11:41:44.068Z,8.90
2023-03-06T11:46:25.844Z,11.70
2023-03-06T11:50:36.647Z,9.70
2023-03-06T11:54:39.455Z,9.00
2023-03-06T11:59:20.916Z,10.00
2023-03-06T12:04:11.325Z,14.40
2023-03-06T12:08:20.734Z,11.80
2023-03-06T12:12:44.366Z,8.50
2023-03-06T12:17:26.559Z,13.80
2023-03-06T12:22:11.198Z,10.90
2023-03-06T12:26:58.734Z,8.40
2023-03-06T12:31:48.471Z,13.00
2023-03-06T12:59:24.205Z,12.40
2023-03-06T13:04:16.871Z,17.70
2023-03-06T13:08:57.817Z,11.40
2023-03-06T13:13:49.370Z,13.70
2023-03-06T13:17:52.265Z,14.10
2023-03-06T13:21:57.323Z,17.60
2023-03-06T13:26:04.241Z,13.30
2023-03-06T13:30:38.984Z,13.80
2023-03-06T13:34:43.387Z,12.40
2023-03-06T13:38:49.052Z,14.90
2023-03-06T13:48:15.629Z,14.50
2023-03-06T13:52:32.520Z,17.90
2023-03-06T13:56:53.542Z,18.50
2023-03-06T14:01:27.800Z,21.70
2023-03-06T14:05:45.090Z,11.90
2023-03-06T14:09:58.344Z,9.40
2023-03-06T14:14:02.039Z,11.10
2023-03-06T14:18:08.164Z,15.20
2023-03-06T14:22:18.798Z,12.50
2023-03-06T14:26:26.622Z,12.90
2023-03-06T14:30:29.588Z,12.30
2023-03-06T14:34:39.955Z,10.20
2023-03-06T14:38:47.356Z,13.20
2023-03-06T14:43:10.000Z,12.50
2023-03-06T14:47:31.180Z,11.30
2023-03-06T14:51:42.541Z,11.70
2023-03-06T14:56:01.209Z,13.50
2023-03-06T15:00:05.520Z,13.40
2023-03-06T15:04:23.756Z,12.10
2023-03-06T15:08:31.378Z,11.70
2023-03-06T15:12:36.628Z,13.80
2023-03-06T15:16:39.638Z,14.40
2023-03-06T15:20:47.858Z,14.30
2023-03-06T15:24:51.114Z,15.90
2023-03-06T15:29:08.272Z,12.80
2023-03-06T15:33:24.634Z,20.30
2023-03-06T15:37:29.192Z,21.90
2023-03-06T15:41:37.842Z,20.60
2023-03-06T15:45:40.983Z,19.20
2023-03-06T15:49:43.881Z,19.50
2023-03-06T15:53:46.845Z,23.60
2023-03-06T15:57:59.900Z,19.80
2023-03-06T16:02:14.493Z,21.60
2023-03-06T16:06:19.834Z,21.40
2023-03-06T16:10:25.651Z,16.80
2023-03-06T16:14:29.001Z,20.60
2023-03-06T16:18:31.940Z,25.40
2023-03-06T16:22:35.213Z,24.90
2023-03-06T16:26:38.419Z,20.70
2023-03-06T16:30:43.592Z,17.60
2023-03-06T16:34:47.131Z,22.20
2023-03-06T16:38:51.390Z,19.30
2023-03-06T16:42:55.559Z,19.70
2023-03-06T16:47:00.844Z,19.70
2023-03-06T16:51:04.066Z,18.50
2023-03-06T16:55:07.348Z,19.50
2023-03-06T16:59:10.967Z,26.90
2023-03-06T17:03:14.379Z,21.80
2023-03-06T17:07:17.431Z,20.60
2023-03-06T17:11:20.563Z,19.00
2023-03-06T17:15:24.424Z,20.40
2023-03-06T17:19:27.524Z,18.80
2023-03-06T17:23:31.125Z,22.00
2023-03-06T17:27:35.568Z,21.10
2023-03-06T17:31:39.511Z,17.30
2023-03-06T17:35:43.113Z,18.60
2023-03-06T17:39:46.709Z,22.70
2023-03-06T17:43:50.862Z,21.50
2023-03-06T17:47:54.490Z,24.50
2023-03-06T17:51:59.967Z,17.00
2023-03-06T17:56:05.274Z,19.90
2023-03-06T18:00:09.605Z,20.80
2023-03-06T18:04:13.199Z,21.20
2023-03-06T18:08:15.999Z,24.50
2023-03-06T18:12:19.303Z,20.90
2023-03-06T18:16:25.280Z,28.50
2023-03-06T18:20:28.473Z,24.50
2023-03-06T18:24:31.382Z,29.40
2023-03-06T18:28:34.549Z,33.60
2023-03-06T18:32:37.700Z,27.90
2023-03-06T18:36:42.555Z,26.80
2023-03-06T18:40:46.279Z,15.90
2023-03-06T18:44:49.380Z,15.20
2023-03-06T18:48:52.663Z,14.00
2023-03-06T18:52:55.718Z,12.90
2023-03-06T18:56:58.798Z,12.50
2023-03-06T19:01:08.900Z,12.60
2023-03-06T19:05:11.852Z,12.50
2023-03-06T19:09:15.560Z,15.80
2023-03-06T19:13:18.516Z,10.90
2023-03-06T19:17:23.421Z,8.10
2023-03-06T19:21:28.600Z,12.00
2023-03-06T19:25:32.773Z,13.50
2023-03-06T19:29:35.775Z,8.70
2023-03-06T19:33:39.722Z,12.20
2023-03-06T19:37:42.669Z,11.00
2023-03-06T19:41:48.975Z,13.50
2023-03-06T19:45:51.906Z,10.30
2023-03-06T19:49:55.074Z,15.40
2023-03-06T19:53:58.042Z,13.80
2023-03-06T19:58:01.208Z,14.20
2023-03-06T20:02:04.158Z,17.30
2023-03-06T20:06:12.573Z,14.60
2023-03-06T20:10:16.220Z,15.30
2023-03-06T20:14:19.584Z,16.30
2023-03-06T20:18:22.448Z,14.60
2023-03-06T20:22:25.701Z,14.50
2023-03-06T20:26:29.488Z,15.40
2023-03-06T20:30:38.041Z,15.80
2023-03-06T20:34:41.821Z,17.00
2023-03-06T20:38:46.978Z,13.30
2023-03-06T20:42:49.786Z,11.10
2023-03-06T20:46:52.791Z,15.10
2023-03-06T22:01:29.193Z,10.30
2023-03-06T22:06:07.089Z,13.00
2023-03-06T22:10:12.267Z,8.60
2023-03-06T22:14:34.610Z,9.40
2023-03-06T22:18:37.774Z,10.50
2023-03-06T22:23:15.887Z,13.70
2023-03-06T22:27:18.803Z,15.40
2023-03-06T22:31:52.093Z,12.40
2023-03-06T22:40:19.920Z,15.30
2023-03-06T22:44:45.835Z,14.10
2023-03-06T22:48:48.648Z,20.80
2023-03-06T22:52:51.439Z,29.70
2023-03-06T22:57:49.072Z,12.10
2023-03-06T23:02:48.006Z,11.50
2023-03-06T23:06:51.145Z,21.80
2023-03-06T23:11:46.860Z,28.40
2023-03-06T23:15:49.724Z,16.80
2023-03-06T23:19:53.163Z,20.30
2023-03-06T23:23:56.107Z,17.00
2023-03-06T23:27:58.940Z,18.60
2023-03-06T23:32:01.859Z,12.60
2023-03-06T23:36:07.095Z,13.00
2023-03-06T23:41:20.204Z,19.60
2023-03-06T23:45:23.089Z,14.40
2023-03-06T23:49:26.035Z,12.50
2023-03-06T23:54:21.213Z,18.60
2023-03-06T23:58:24.028Z,14.50
